createdAt,value
2019-02-28T00:02:29.225Z,62.22
2019-02-28T00:04:59.533Z,62.18
2019-02-28T00:07:30.095Z,62.13
2019-02-28T00:10:01.054Z,62.07
2019-02-28T00:12:33.057Z,62.52
2019-02-28T00:15:05.145Z,62.38
2019-02-28T00:17:35.486Z,62.26
2019-02-28T00:20:07.118Z,62.34
2019-02-28T00:22:39.521Z,62.49
2019-02-28T00:25:09.958Z,62.96
2019-02-28T00:27:40.548Z,63.11
2019-02-28T00:30:15.899Z,63.11
2019-02-28T00:32:47.271Z,63.19
2019-02-28T00:35:17.586Z,63.51
2019-02-28T00:37:48.099Z,63.88
2019-02-28T00:40:18.705Z,64.11
2019-02-28T00:42:50.812Z,64.11
2019-02-28T00:45:23.261Z,64.56
2019-02-28T00:48:06.365Z,64.79
2019-02-28T00:50:36.824Z,65.25
2019-02-28T00:53:07.408Z,65.19
2019-02-28T00:55:38.103Z,65.70
2019-02-28T00:58:10.256Z,65.94
2019-02-28T01:00:40.800Z,65.99
2019-02-28T01:03:15.414Z,66.29
2019-02-28T01:05:46.851Z,66.72
2019-02-28T01:08:19.097Z,67.09
2019-02-28T01:10:52.330Z,67.29
2019-02-28T01:13:27.294Z,67.01
2019-02-28T01:15:55.034Z,66.95
2019-02-28T01:18:25.365Z,67.33
2019-02-28T01:20:56.294Z,67.33
2019-02-28T01:23:30.070Z,67.47
2019-02-28T01:26:00.496Z,67.37
2019-02-28T01:28:31.102Z,67.37
2019-02-28T01:31:01.773Z,67.73
2019-02-28T01:33:33.970Z,67.85
2019-02-28T01:36:04.428Z,68.10
2019-02-28T01:38:35.927Z,68.41
2019-02-28T01:41:08.381Z,68.72
2019-02-28T01:43:40.531Z,68.72
2019-02-28T01:46:10.723Z,68.91
2019-02-28T01:48:41.402Z,69.39
2019-02-28T01:51:14.185Z,69.38
2019-02-28T01:53:44.735Z,69.32
2019-02-28T01:56:16.695Z,69.32
2019-02-28T01:58:50.350Z,69.39
2019-02-28T02:01:24.310Z,69.31
2019-02-28T02:03:55.824Z,69.48
2019-02-28T02:06:26.584Z,69.84
2019-02-28T02:08:57.160Z,70.11
2019-02-28T02:11:27.467Z,70.33
2019-02-28T02:13:57.757Z,70.52
2019-02-28T02:16:29.141Z,70.52
2019-02-28T02:18:59.491Z,70.84
2019-02-28T02:21:31.376Z,71.45
2019-02-28T02:24:31.644Z,71.54
2019-02-28T02:26:52.223Z,71.58
2019-02-28T02:29:22.682Z,71.57
2019-02-28T02:32:01.299Z,71.64
2019-02-28T02:34:29.861Z,71.95
2019-02-28T02:37:01.956Z,72.25
2019-02-28T02:39:35.214Z,72.50
2019-02-28T02:42:09.790Z,72.46
2019-02-28T02:44:38.939Z,72.59
2019-02-28T02:47:12.877Z,72.86
2019-02-28T02:49:43.141Z,73.13
2019-02-28T02:52:29.901Z,72.99
2019-02-28T02:54:53.490Z,73.15
2019-02-28T02:57:24.514Z,73.26
2019-02-28T02:59:58.432Z,73.05
2019-02-28T03:02:33.082Z,72.86
2019-02-28T03:05:00.917Z,72.85
2019-02-28T03:07:31.396Z,73.14
2019-02-28T03:10:01.921Z,73.14
2019-02-28T03:12:32.986Z,73.24
2019-02-28T03:15:06.335Z,73.24
2019-02-28T03:17:36.836Z,73.62
2019-02-28T03:20:10.324Z,73.76
2019-02-28T03:22:40.613Z,73.90
2019-02-28T03:25:15.259Z,73.94
2019-02-28T03:27:44.267Z,73.92
2019-02-28T03:30:28.371Z,74.12
2019-02-28T03:32:51.602Z,74.44
2019-02-28T03:35:22.957Z,74.62
2019-02-28T03:37:57.524Z,74.88
2019-02-28T03:40:29.523Z,75.19
2019-02-28T03:43:05.451Z,75.01
2019-02-28T03:45:39.090Z,75.22
2019-02-28T03:48:05.347Z,75.45
2019-02-28T03:50:35.886Z,75.32
2019-02-28T03:53:06.545Z,75.51
2019-02-28T03:55:40.882Z,75.53
2019-02-28T03:58:11.630Z,75.70
2019-02-28T04:00:44.365Z,75.64
2019-02-28T04:03:14.671Z,75.78
2019-02-28T04:05:46.672Z,75.64
2019-02-28T04:08:17.179Z,75.81
2019-02-28T04:10:47.476Z,75.78
2019-02-28T04:13:19.267Z,76.28
2019-02-28T04:16:07.712Z,76.28
2019-02-28T04:18:29.019Z,76.09
2019-02-28T04:20:59.527Z,76.43
2019-02-28T04:23:35.459Z,76.43
2019-02-28T04:26:05.515Z,76.83
2019-02-28T04:28:36.088Z,77.00
2019-02-28T04:31:15.225Z,77.56
2019-02-28T04:33:46.419Z,77.72
2019-02-28T04:36:16.708Z,77.83
2019-02-28T04:38:55.346Z,78.03
2019-02-28T04:41:24.707Z,78.39
2019-02-28T04:43:55.019Z,78.39
2019-02-28T04:46:34.302Z,78.80
2019-02-28T04:49:06.583Z,78.78
2019-02-28T04:51:40.157Z,78.97
2019-02-28T04:54:11.277Z,79.27
2019-02-28T04:56:42.227Z,79.17
2019-02-28T04:59:14.690Z,79.14
2019-02-28T05:01:46.160Z,79.46
2019-02-28T05:04:16.745Z,79.79
2019-02-28T05:06:47.036Z,79.94
2019-02-28T05:09:17.594Z,80.17
2019-02-28T05:11:47.882Z,80.32
2019-02-28T05:17:08.039Z,80.30
2019-02-28T05:19:37.989Z,80.16
2019-02-28T05:22:08.310Z,80.16
2019-02-28T05:24:39.513Z,80.21
2019-02-28T05:27:12.855Z,80.54
2019-02-28T05:29:45.173Z,81.02
2019-02-28T05:32:15.483Z,81.28
2019-02-28T05:34:51.016Z,81.44
2019-02-28T05:37:23.237Z,81.60
2019-02-28T05:39:53.542Z,81.59
2019-02-28T05:42:24.111Z,81.49
2019-02-28T05:45:00.482Z,81.58
2019-02-28T05:47:29.396Z,81.67
2019-02-28T05:50:01.255Z,81.68
2019-02-28T05:52:33.746Z,81.77
2019-02-28T05:55:04.094Z,81.90
2019-02-28T05:57:34.395Z,81.90
2019-02-28T06:00:05.283Z,81.85
2019-02-28T06:02:40.748Z,82.02
2019-02-28T06:05:16.188Z,82.14
2019-02-28T06:07:46.517Z,82.36
2019-02-28T06:10:23.499Z,82.44
2019-02-28T06:12:48.929Z,82.53
2019-02-28T06:15:21.235Z,82.62
2019-02-28T06:17:54.968Z,82.71
2019-02-28T06:20:30.368Z,82.85
2019-02-28T06:23:06.309Z,82.90
2019-02-28T06:25:38.347Z,82.98
2019-02-28T06:28:08.667Z,82.75
2019-02-28T06:30:41.490Z,82.93
2019-02-28T06:33:11.255Z,83.09
2019-02-28T06:35:46.017Z,83.26
2019-02-28T06:38:21.102Z,83.41
2019-02-28T06:40:52.668Z,83.45
2019-02-28T06:43:23.206Z,83.44
2019-02-28T06:45:57.140Z,83.49
2019-02-28T06:48:30.765Z,83.46
2019-02-28T06:51:19.275Z,83.39
2019-02-28T06:53:55.323Z,83.29
2019-02-28T06:56:27.848Z,83.16
2019-02-28T06:59:09.791Z,82.92
2019-02-28T07:01:40.119Z,82.60
2019-02-28T07:04:11.481Z,82.16
2019-02-28T07:06:42.882Z,81.69
2019-02-28T07:09:15.126Z,81.14
2019-02-28T07:11:46.144Z,80.57
2019-02-28T07:17:16.432Z,79.25
2019-02-28T07:19:49.366Z,78.58
2019-02-28T07:22:21.175Z,78.00
2019-02-28T07:24:51.455Z,77.65
2019-02-28T07:27:23.379Z,77.17
2019-02-28T07:29:54.548Z,76.60
2019-02-28T07:32:26.196Z,75.94
2019-02-28T07:35:07.030Z,75.23
2019-02-28T07:37:34.244Z,74.41
2019-02-28T07:40:09.065Z,73.69
2019-02-28T07:42:47.526Z,73.03
2019-02-28T07:45:18.545Z,72.21
2019-02-28T07:47:52.766Z,71.56
2019-02-28T07:50:22.323Z,71.08
2019-02-28T07:52:53.256Z,70.54
2019-02-28T07:55:27.161Z,69.53
2019-02-28T07:58:09.822Z,68.82
2019-02-28T08:00:40.613Z,67.87
2019-02-28T08:03:18.527Z,67.28
2019-02-28T08:05:48.817Z,66.86
2019-02-28T08:08:26.488Z,66.54
2019-02-28T08:10:58.493Z,66.08
2019-02-28T08:13:28.876Z,65.79
2019-02-28T08:16:00.678Z,64.67
2019-02-28T08:18:32.305Z,56.02
2019-02-28T08:21:05.398Z,47.65
2019-02-28T08:23:39.157Z,43.44
2019-02-28T08:26:09.671Z,40.64
2019-02-28T08:28:41.504Z,38.85
2019-02-28T08:31:12.516Z,38.79
2019-02-28T08:33:42.847Z,36.66
2019-02-28T08:36:18.912Z,36.05
2019-02-28T08:38:52.816Z,35.79
2019-02-28T08:41:25.742Z,33.67
2019-02-28T08:43:59.570Z,32.16
2019-02-28T08:46:29.928Z,32.13
2019-02-28T08:49:06.274Z,32.40
2019-02-28T08:51:39.841Z,31.62
2019-02-28T08:54:11.494Z,32.04
2019-02-28T08:56:46.139Z,31.45
2019-02-28T08:59:22.537Z,29.94
2019-02-28T09:01:51.828Z,28.68
2019-02-28T09:04:22.489Z,28.29
2019-02-28T09:06:53.420Z,30.52
2019-02-28T09:09:25.687Z,30.57
2019-02-28T09:11:58.829Z,30.38
2019-02-28T09:14:37.228Z,29.19
2019-02-28T09:17:07.375Z,30.47
2019-02-28T09:19:45.491Z,32.34
2019-02-28T09:22:19.446Z,30.77
2019-02-28T09:24:50.702Z,30.35
2019-02-28T09:27:24.842Z,29.83
2019-02-28T09:29:55.617Z,27.08
2019-02-28T09:32:26.491Z,26.05
2019-02-28T09:34:56.834Z,25.79
2019-02-28T09:37:29.800Z,25.39
2019-02-28T09:39:59.786Z,25.18
2019-02-28T09:42:32.149Z,25.91
2019-02-28T09:45:06.723Z,26.38
2019-02-28T09:47:35.158Z,26.78
2019-02-28T09:50:06.340Z,28.20
2019-02-28T09:52:41.248Z,29.11
2019-02-28T09:55:09.197Z,29.32
2019-02-28T09:57:39.932Z,29.61
2019-02-28T10:00:13.041Z,29.65
2019-02-28T10:02:45.021Z,28.10
2019-02-28T10:05:17.413Z,23.88
2019-02-28T10:07:48.334Z,22.69
2019-02-28T10:10:20.798Z,22.69
2019-02-28T10:12:54.311Z,23.33
2019-02-28T10:15:25.114Z,25.37
2019-02-28T10:17:55.796Z,24.93
2019-02-28T10:20:30.476Z,24.04
2019-02-28T10:23:02.878Z,22.89
2019-02-28T10:25:34.034Z,22.20
2019-02-28T10:28:12.541Z,23.19
2019-02-28T10:30:43.194Z,24.40
2019-02-28T10:33:19.506Z,26.04
2019-02-28T10:35:51.721Z,29.05
2019-02-28T10:38:22.060Z,29.05
2019-02-28T10:41:03.977Z,34.13
2019-02-28T10:43:51.442Z,34.13
2019-02-28T10:46:09.055Z,36.91
2019-02-28T10:48:50.620Z,38.49
2019-02-28T10:51:14.363Z,39.94
2019-02-28T10:53:49.867Z,40.60
2019-02-28T10:56:29.233Z,40.81
2019-02-28T10:58:56.369Z,41.14
2019-02-28T11:01:26.820Z,41.17
2019-02-28T11:04:07.453Z,41.17
2019-02-28T11:06:32.684Z,41.69
2019-02-28T11:09:03.074Z,42.28
2019-02-28T11:11:35.204Z,42.80
2019-02-28T11:14:08.866Z,42.74
2019-02-28T11:16:44.091Z,42.54
2019-02-28T11:19:13.841Z,42.21
2019-02-28T11:21:47.125Z,41.72
2019-02-28T11:24:27.758Z,40.64
2019-02-28T11:26:58.573Z,39.92
2019-02-28T11:29:35.145Z,39.48
2019-02-28T11:32:11.811Z,39.87
2019-02-28T11:34:40.265Z,40.15
2019-02-28T11:37:14.481Z,40.04
2019-02-28T11:39:44.877Z,40.60
2019-02-28T11:42:15.698Z,41.29
2019-02-28T11:44:47.623Z,41.94
2019-02-28T11:47:18.991Z,42.70
2019-02-28T11:49:53.921Z,42.66
2019-02-28T11:52:29.678Z,43.36
2019-02-28T11:55:00.353Z,44.03
2019-02-28T11:57:32.033Z,44.58
2019-02-28T12:00:03.220Z,44.72
2019-02-28T12:02:36.739Z,44.93
2019-02-28T12:05:07.673Z,44.92
2019-02-28T12:07:39.360Z,44.99
2019-02-28T12:10:11.723Z,44.80
2019-02-28T12:12:44.720Z,45.20
2019-02-28T12:15:16.947Z,45.77
2019-02-28T12:17:47.627Z,46.05
2019-02-28T12:20:28.424Z,46.45
2019-02-28T12:23:01.298Z,46.68
2019-02-28T12:25:32.905Z,46.65
2019-02-28T12:28:08.476Z,46.47
2019-02-28T12:30:40.286Z,46.69
2019-02-28T12:33:15.350Z,46.85
2019-02-28T12:35:46.179Z,46.93
2019-02-28T12:38:16.989Z,46.87
2019-02-28T12:40:50.362Z,47.19
2019-02-28T12:43:21.067Z,47.59
2019-02-28T12:45:53.546Z,47.75
2019-02-28T12:48:23.990Z,47.39
2019-02-28T12:50:58.594Z,47.59
2019-02-28T12:53:35.405Z,47.75
2019-02-28T12:56:05.851Z,48.13
2019-02-28T12:58:42.248Z,48.13
2019-02-28T13:01:12.796Z,48.13
2019-02-28T13:03:54.610Z,48.10
2019-02-28T13:06:23.697Z,48.19
2019-02-28T13:08:54.224Z,48.19
2019-02-28T13:11:27.981Z,47.90
2019-02-28T13:14:02.619Z,47.79
2019-02-28T13:16:31.261Z,47.65
2019-02-28T13:19:07.580Z,47.61
2019-02-28T13:21:43.708Z,47.41
2019-02-28T13:24:18.388Z,47.31
2019-02-28T13:26:54.653Z,47.30
2019-02-28T13:29:28.813Z,47.02
2019-02-28T13:32:01.391Z,46.99
2019-02-28T13:34:34.298Z,48.35
2019-02-28T13:37:04.653Z,48.35
2019-02-28T13:39:39.333Z,47.96
2019-02-28T13:42:09.630Z,47.71
2019-02-28T13:44:40.102Z,47.49
2019-02-28T13:47:11.683Z,47.90
2019-02-28T13:49:42.335Z,47.92
2019-02-28T13:52:18.876Z,48.24
2019-02-28T13:54:46.205Z,48.94
2019-02-28T13:57:17.934Z,49.47
2019-02-28T13:59:52.756Z,50.67
2019-02-28T14:02:26.222Z,51.76
2019-02-28T14:05:02.737Z,52.74
2019-02-28T14:07:33.863Z,53.87
2019-02-28T14:10:11.532Z,55.30
2019-02-28T14:12:43.659Z,57.04
2019-02-28T14:15:17.508Z,57.98
2019-02-28T14:17:47.945Z,58.21
2019-02-28T14:20:20.435Z,58.45
2019-02-28T14:22:54.937Z,58.79
2019-02-28T14:25:25.609Z,59.20
2019-02-28T14:27:56.871Z,59.33
2019-02-28T14:30:30.195Z,59.41
2019-02-28T14:33:00.519Z,59.56
2019-02-28T14:35:35.180Z,59.71
2019-02-28T14:38:10.582Z,59.74
2019-02-28T14:40:42.069Z,59.84
2019-02-28T14:43:23.024Z,59.92
2019-02-28T14:45:55.850Z,60.10
2019-02-28T14:48:26.377Z,60.01
2019-02-28T14:50:58.972Z,59.77
2019-02-28T14:53:29.696Z,59.82
2019-02-28T14:56:04.295Z,59.86
2019-02-28T14:58:33.367Z,59.81
2019-02-28T15:01:04.225Z,59.98
2019-02-28T15:03:42.866Z,60.02
2019-02-28T15:06:13.513Z,60.11
2019-02-28T15:08:47.423Z,60.26
2019-02-28T15:11:19.034Z,60.15
2019-02-28T15:13:49.682Z,60.02
2019-02-28T15:16:21.666Z,60.02
2019-02-28T15:18:56.111Z,59.96
2019-02-28T15:21:26.788Z,59.80
2019-02-28T15:24:08.545Z,59.84
2019-02-28T15:26:37.392Z,59.92
2019-02-28T15:29:09.128Z,59.86
2019-02-28T15:31:40.415Z,59.72
2019-02-28T15:34:13.094Z,58.36
2019-02-28T15:36:43.416Z,58.36
2019-02-28T15:39:18.988Z,58.01
2019-02-28T15:41:48.030Z,57.95
2019-02-28T15:44:18.670Z,58.06
2019-02-28T15:46:48.992Z,57.92
2019-02-28T15:49:20.773Z,58.11
2019-02-28T15:51:51.128Z,58.11
2019-02-28T15:54:25.127Z,57.97
2019-02-28T15:56:55.457Z,57.86
2019-02-28T15:59:29.651Z,57.59
2019-02-28T16:02:06.357Z,57.66
2019-02-28T16:04:35.114Z,57.88
2019-02-28T16:07:05.775Z,58.05
2019-02-28T16:09:37.922Z,58.35
2019-02-28T16:12:15.168Z,58.64
2019-02-28T16:14:45.990Z,58.75
2019-02-28T16:17:17.375Z,58.95
2019-02-28T16:19:47.791Z,59.28
2019-02-28T16:22:19.091Z,59.68
2019-02-28T16:24:49.542Z,60.09
2019-02-28T16:27:22.424Z,60.54
2019-02-28T16:29:52.337Z,60.68
2019-02-28T16:32:25.841Z,60.73
2019-02-28T16:34:57.968Z,60.92
2019-02-28T16:37:34.778Z,61.04
2019-02-28T16:40:04.217Z,61.19
2019-02-28T16:42:34.532Z,61.22
2019-02-28T16:45:10.438Z,61.32
2019-02-28T16:47:42.066Z,61.18
2019-02-28T16:50:20.197Z,61.32
2019-02-28T16:52:50.929Z,61.45
2019-02-28T16:55:24.433Z,61.56
2019-02-28T16:57:54.839Z,61.63
2019-02-28T17:00:42.375Z,61.48
2019-02-28T17:03:07.299Z,61.54
2019-02-28T17:05:38.179Z,61.78
2019-02-28T17:08:10.256Z,61.78
2019-02-28T17:10:44.252Z,61.55
2019-02-28T17:13:45.344Z,61.33
2019-02-28T17:16:38.167Z,61.26
2019-02-28T17:19:11.400Z,61.15
2019-02-28T17:21:43.882Z,61.22
2019-02-28T17:24:18.576Z,60.81
2019-02-28T17:26:54.879Z,61.07
2019-02-28T17:29:38.125Z,60.99
2019-02-28T17:32:14.747Z,60.92
2019-02-28T17:34:46.259Z,60.98
2019-02-28T17:37:25.508Z,61.06
2019-02-28T17:39:58.092Z,61.05
2019-02-28T17:42:30.388Z,61.00
2019-02-28T17:45:19.393Z,61.01
2019-02-28T17:48:31.135Z,60.95
2019-02-28T17:51:22.385Z,61.09
2019-02-28T17:54:42.308Z,61.06
2019-02-28T17:57:31.869Z,61.40
2019-02-28T18:00:52.869Z,61.56
2019-02-28T18:04:04.817Z,62.19
2019-02-28T18:07:23.651Z,62.84
2019-02-28T18:10:03.772Z,63.19
2019-02-28T18:12:57.382Z,63.37
2019-02-28T18:16:36.826Z,63.69
2019-02-28T18:19:45.222Z,64.02
2019-02-28T18:22:57.747Z,64.28
2019-02-28T18:25:57.114Z,64.79
2019-02-28T18:29:11.744Z,65.23
2019-02-28T18:31:42.463Z,65.63
2019-02-28T18:34:24.792Z,65.51
2019-02-28T18:37:00.441Z,66.12
2019-02-28T18:39:30.507Z,66.88
2019-02-28T18:42:01.178Z,66.86
2019-02-28T18:44:31.624Z,66.89
2019-02-28T18:47:04.323Z,67.08
2019-02-28T18:49:36.432Z,67.17
2019-02-28T18:52:08.153Z,66.98
2019-02-28T18:54:44.548Z,66.98
2019-02-28T18:57:20.326Z,66.15
2019-02-28T18:59:52.609Z,66.15
2019-02-28T19:02:25.884Z,66.94
2019-02-28T19:04:59.599Z,66.94
2019-02-28T19:07:40.713Z,66.76
2019-02-28T19:10:11.424Z,66.72
2019-02-28T19:12:43.134Z,66.62
2019-02-28T19:15:13.873Z,66.53
2019-02-28T19:17:45.532Z,66.56
2019-02-28T19:20:15.897Z,66.56
2019-02-28T19:22:50.716Z,66.32
2019-02-28T19:25:22.310Z,66.81
2019-02-28T19:27:53.913Z,68.04
2019-02-28T19:30:24.425Z,68.29
2019-02-28T19:32:56.343Z,68.16
2019-02-28T19:35:39.198Z,68.21
2019-02-28T19:38:07.545Z,68.18
2019-02-28T19:40:38.133Z,68.08
2019-02-28T19:43:12.612Z,68.18
2019-02-28T19:45:45.206Z,68.32
2019-02-28T19:48:17.135Z,68.19
2019-02-28T19:50:51.927Z,67.63
2019-02-28T19:53:24.378Z,67.59
2019-02-28T19:55:58.523Z,67.95
2019-02-28T19:58:28.854Z,68.11
2019-02-28T20:01:02.804Z,67.85
2019-02-28T20:03:33.525Z,67.52
2019-02-28T20:06:05.266Z,67.70
2019-02-28T20:08:36.992Z,67.70
2019-02-28T20:11:07.717Z,67.78
2019-02-28T20:13:38.353Z,68.12
2019-02-28T20:16:10.694Z,68.37
2019-02-28T20:18:41.023Z,68.63
2019-02-28T20:21:14.137Z,68.94
2019-02-28T20:23:44.541Z,69.29
2019-02-28T20:26:15.245Z,69.33
2019-02-28T20:28:53.799Z,69.92
2019-02-28T20:31:24.744Z,70.25
2019-02-28T20:33:56.372Z,70.79
2019-02-28T20:36:31.069Z,71.03
2019-02-28T20:39:01.499Z,71.13
2019-02-28T20:41:34.591Z,71.01
2019-02-28T20:44:13.102Z,71.01
2019-02-28T20:46:43.471Z,71.00
2019-02-28T20:49:15.827Z,70.87
2019-02-28T20:51:55.199Z,70.76
2019-02-28T20:54:21.214Z,70.68
2019-02-28T20:56:51.860Z,70.83
2019-02-28T20:59:23.159Z,70.80
2019-02-28T21:01:53.548Z,70.75
2019-02-28T21:04:29.669Z,70.51
2019-02-28T21:07:00.458Z,70.54
2019-02-28T21:09:44.611Z,70.45
2019-02-28T21:12:27.394Z,70.28
2019-02-28T21:14:50.124Z,70.23
2019-02-28T21:17:29.178Z,70.22
2019-02-28T21:19:57.571Z,70.72
2019-02-28T21:22:29.009Z,72.04
2019-02-28T21:25:04.094Z,73.01
2019-02-28T21:27:34.077Z,73.80
2019-02-28T21:30:05.793Z,74.39
2019-02-28T21:32:39.171Z,74.89
2019-02-28T21:35:11.844Z,75.12
2019-02-28T21:37:42.730Z,75.34
2019-02-28T21:40:15.865Z,75.80
2019-02-28T21:42:46.513Z,75.87
2019-02-28T21:45:19.260Z,75.92
2019-02-28T21:47:49.674Z,76.09
2019-02-28T21:50:24.659Z,76.05
2019-02-28T21:52:55.127Z,75.88
2019-02-28T21:55:27.361Z,75.69
2019-02-28T21:57:58.951Z,75.57
2019-02-28T22:00:39.301Z,75.52
2019-02-28T22:03:10.273Z,75.37
2019-02-28T22:05:40.807Z,75.15
2019-02-28T22:08:11.493Z,75.05
2019-02-28T22:10:41.831Z,75.02
2019-02-28T22:13:13.669Z,74.92
2019-02-28T22:15:46.339Z,74.93
2019-02-28T22:18:21.180Z,74.84
2019-02-28T22:20:56.172Z,74.76
2019-02-28T22:23:26.691Z,75.00
2019-02-28T22:26:01.953Z,74.99
2019-02-28T22:28:34.296Z,74.83
2019-02-28T22:31:22.465Z,74.58
2019-02-28T22:34:02.910Z,74.52
2019-02-28T22:36:38.783Z,74.41
2019-02-28T22:39:10.841Z,74.57
2019-02-28T22:41:41.733Z,74.54
2019-02-28T22:44:14.536Z,74.53
2019-02-28T22:46:46.659Z,74.60
2019-02-28T22:49:18.290Z,74.58
2019-02-28T22:51:48.731Z,74.51
2019-02-28T22:54:23.219Z,74.39
2019-02-28T22:56:55.457Z,73.87
2019-02-28T22:59:27.169Z,73.87
2019-02-28T23:01:58.061Z,73.67
2019-02-28T23:04:28.410Z,73.55
2019-02-28T23:06:59.491Z,73.46
2019-02-28T23:09:31.033Z,73.29
2019-02-28T23:12:01.377Z,73.41
2019-02-28T23:14:31.807Z,73.30
2019-02-28T23:17:02.305Z,73.29
2019-02-28T23:19:32.960Z,73.24
2019-02-28T23:22:10.086Z,73.26
2019-02-28T23:24:39.278Z,73.34
2019-02-28T23:27:21.191Z,73.33
2019-02-28T23:30:17.144Z,73.39
2019-02-28T23:33:04.602Z,73.48
2019-02-28T23:35:37.663Z,73.59
2019-02-28T23:38:09.191Z,73.65
2019-02-28T23:40:39.774Z,73.49
2019-02-28T23:43:10.465Z,73.57
2019-02-28T23:45:40.788Z,73.57
2019-02-28T23:48:13.507Z,73.62
2019-02-28T23:50:46.392Z,73.80
2019-02-28T23:53:18.043Z,73.92
2019-02-28T23:55:53.122Z,73.85
2019-02-28T23:58:23.456Z,73.86
